Time;durP1;ratioP1;P1;durP2;ratioP2;P2;SDS_P1;SDS_P2;PMS_P1;PMS_P2;Temp;Humidity;BMP_temperature;BMP_pressure;BME280_temperature;BME280_humidity;BME280_pressure;Samples;Min_cycle;Max_cycle;Signal;HPM_P1;HPM_P2
2023/09/04 00:00:06;;;;;;;4.55;3.70;;;17.90;99.90;;;;;;5061427;28;20168;-74
2023/09/04 00:02:32;;;;;;;5.07;3.30;;;17.90;99.90;;;;;;5061565;28;20236;-74
2023/09/04 00:05:00;;;;;;;3.97;3.33;;;17.90;99.90;;;;;;5061863;28;20329;-74
2023/09/04 00:07:28;;;;;;;4.47;3.50;;;17.90;99.90;;;;;;5061611;28;20315;-74
2023/09/04 00:09:53;;;;;;;3.97;3.55;;;17.90;99.90;;;;;;5061451;28;20168;-74
2023/09/04 00:12:32;;;;;;;3.83;3.40;;;17.90;99.90;;;;;;5061631;28;20279;-75
2023/09/04 00:15:02;;;;;;;4.45;3.38;;;17.80;99.90;;;;;;5061395;28;20172;-74
2023/09/04 00:17:30;;;;;;;3.80;3.40;;;17.80;99.90;;;;;;5061067;28;20232;-74
2023/09/04 00:20:00;;;;;;;5.63;3.65;;;17.80;99.90;;;;;;5061379;28;20177;-75
2023/09/04 00:22:27;;;;;;;4.80;3.88;;;17.80;99.90;;;;;;5060827;28;20222;-75
2023/09/04 00:24:53;;;;;;;5.82;4.03;;;17.70;99.90;;;;;;5061414;28;20173;-74
2023/09/04 00:27:20;;;;;;;6.00;3.72;;;17.70;99.90;;;;;;5061253;28;20284;-74
2023/09/04 00:29:45;;;;;;;4.18;3.42;;;17.70;99.90;;;;;;5061489;28;20215;-74
2023/09/04 00:32:14;;;;;;;4.00;3.60;;;17.60;99.90;;;;;;5061355;28;20177;-74
2023/09/04 00:34:40;;;;;;;4.38;3.70;;;17.60;99.90;;;;;;5078473;28;20172;-75
2023/09/04 00:37:09;;;;;;;6.15;3.53;;;17.60;99.90;;;;;;5060925;28;20177;-71
2023/09/04 00:39:36;;;;;;;4.32;3.80;;;17.60;99.90;;;;;;5060053;28;20180;-73
2023/09/04 00:42:06;;;;;;;3.90;3.50;;;17.50;99.90;;;;;;5060775;28;20208;-74
2023/09/04 00:44:37;;;;;;;3.70;3.33;;;17.50;99.90;;;;;;5077749;28;20239;-75
2023/09/04 00:47:06;;;;;;;3.72;3.03;;;17.50;99.90;;;;;;5060614;28;20207;-75
2023/09/04 00:49:32;;;;;;;5.03;3.65;;;17.40;99.90;;;;;;5060413;28;20325;-75
2023/09/04 00:52:01;;;;;;;3.95;3.22;;;17.50;99.90;;;;;;5060611;28;20216;-73
2023/09/04 00:54:50;;;;;;;4.68;3.65;;;17.40;99.90;;;;;;5060364;28;20278;-75
2023/09/04 00:57:20;;;;;;;4.00;3.45;;;17.40;99.90;;;;;;5060472;28;20176;-74
2023/09/04 00:59:46;;;;;;;4.40;3.50;;;17.40;99.90;;;;;;5060417;28;20405;-75
2023/09/04 01:02:18;;;;;;;5.18;3.50;;;17.30;99.90;;;;;;5059866;28;20246;-74
2023/09/04 01:04:44;;;;;;;5.43;3.75;;;17.30;99.90;;;;;;5059967;28;20188;-73
2023/09/04 01:07:12;;;;;;;4.03;3.63;;;17.30;99.90;;;;;;5060318;28;20169;-76
2023/09/04 01:09:43;;;;;;;4.85;3.97;;;17.20;99.90;;;;;;5060092;28;20196;-74
2023/09/04 01:12:20;;;;;;;3.78;3.45;;;17.20;99.90;;;;;;5060443;28;20230;-75
2023/09/04 01:14:57;;;;;;;4.05;3.65;;;17.20;99.90;;;;;;5060060;28;20257;-74
2023/09/04 01:17:28;;;;;;;4.00;3.42;;;17.10;99.90;;;;;;5060362;28;20269;-73
2023/09/04 01:20:00;;;;;;;4.53;3.60;;;17.10;99.90;;;;;;5060243;28;20216;-74
2023/09/04 01:22:31;;;;;;;4.03;3.05;;;17.00;99.90;;;;;;5058787;28;20212;-74
2023/09/04 01:24:57;;;;;;;3.92;3.40;;;17.00;99.90;;;;;;5059824;28;20197;-75
2023/09/04 01:27:31;;;;;;;3.88;3.47;;;17.00;99.90;;;;;;5059684;28;20241;-74
2023/09/04 01:30:07;;;;;;;3.38;3.08;;;17.00;99.90;;;;;;5059690;28;20278;-76
2023/09/04 01:32:48;;;;;;;4.32;3.72;;;17.00;99.90;;;;;;5060009;28;20200;-74
2023/09/04 01:35:19;;;;;;;4.78;3.50;;;17.00;99.90;;;;;;5059902;28;20207;-74
2023/09/04 01:37:47;;;;;;;4.20;3.50;;;17.00;99.90;;;;;;5059718;28;20179;-76
2023/09/04 01:40:13;;;;;;;3.72;3.25;;;16.90;99.90;;;;;;5059627;28;20218;-75
2023/09/04 01:42:57;;;;;;;3.90;3.50;;;16.90;99.90;;;;;;5059752;28;20200;-73
2023/09/04 01:45:22;;;;;;;3.65;3.25;;;16.90;99.90;;;;;;5059729;28;20200;-74
2023/09/04 01:47:50;;;;;;;3.85;3.45;;;16.90;99.90;;;;;;5059622;28;20168;-74
2023/09/04 01:50:18;;;;;;;4.32;3.63;;;16.90;99.90;;;;;;5058490;28;20177;-75
2023/09/04 01:52:44;;;;;;;3.85;3.38;;;16.90;99.90;;;;;;5058550;28;20207;-73
2023/09/04 01:55:27;;;;;;;5.25;3.78;;;16.90;99.90;;;;;;5059867;28;20177;-74
2023/09/04 01:57:53;;;;;;;4.88;3.35;;;16.90;99.90;;;;;;5059432;28;20172;-75
2023/09/04 02:00:26;;;;;;;4.70;3.20;;;16.90;99.90;;;;;;5059971;28;20179;-75
2023/09/04 02:03:05;;;;;;;3.95;3.28;;;16.90;99.90;;;;;;5061109;28;20196;-74
2023/09/04 02:05:31;;;;;;;4.97;3.50;;;16.90;99.90;;;;;;5064843;28;20157;-74
2023/09/04 02:07:57;;;;;;;4.07;3.65;;;16.80;99.90;;;;;;5064332;28;20232;-73
2023/09/04 02:10:45;;;;;;;4.35;3.90;;;16.80;99.90;;;;;;5068104;28;20287;-72
2023/09/04 02:13:11;;;;;;;4.93;3.95;;;16.80;99.90;;;;;;5065648;28;20164;-74
2023/09/04 02:15:38;;;;;;;4.18;3.78;;;16.80;99.90;;;;;;5061198;28;20169;-73
2023/09/04 02:18:09;;;;;;;4.72;3.33;;;16.80;99.90;;;;;;5061622;28;20168;-74
2023/09/04 02:20:40;;;;;;;4.53;4.10;;;16.80;99.90;;;;;;5046096;28;20178;-75
2023/09/04 02:23:23;;;;;;;5.28;3.55;;;16.80;99.90;;;;;;5039270;28;20286;-73
2023/09/04 02:25:54;;;;;;;4.10;3.70;;;16.80;99.90;;;;;;5039677;28;20169;-74
2023/09/04 02:28:20;;;;;;;5.55;4.03;;;16.70;99.90;;;;;;5055426;28;20263;-76
2023/09/04 02:30:53;;;;;;;3.95;3.47;;;16.70;99.90;;;;;;5058623;28;20261;-74
2023/09/04 02:33:25;;;;;;;5.13;3.92;;;16.60;99.90;;;;;;5058556;28;20201;-75
2023/09/04 02:35:51;;;;;;;3.90;3.35;;;16.60;99.90;;;;;;5054982;28;20351;-72
2023/09/04 02:38:20;;;;;;;4.22;3.83;;;16.50;99.90;;;;;;5055001;28;20201;-74
2023/09/04 02:40:45;;;;;;;4.50;3.97;;;16.50;99.90;;;;;;5055321;28;20192;-75
2023/09/04 02:43:13;;;;;;;4.22;3.72;;;16.40;99.90;;;;;;5055173;28;20248;-73
2023/09/04 02:45:47;;;;;;;4.68;3.70;;;16.40;99.90;;;;;;5055039;28;20171;-72
2023/09/04 02:48:16;;;;;;;3.92;3.60;;;16.30;99.90;;;;;;5055268;28;20196;-74
2023/09/04 02:50:41;;;;;;;5.05;3.63;;;16.30;99.90;;;;;;5055107;28;20264;-74
2023/09/04 02:53:27;;;;;;;4.90;3.88;;;16.30;99.90;;;;;;5055098;28;20224;-73
2023/09/04 02:56:12;;;;;;;3.92;3.38;;;16.20;99.90;;;;;;5054624;28;20197;-76
2023/09/04 02:58:40;;;;;;;3.50;3.20;;;16.20;99.90;;;;;;5055028;28;20200;-75
2023/09/04 03:01:05;;;;;;;3.65;3.35;;;16.20;99.90;;;;;;5056436;28;20196;-74
2023/09/04 03:03:43;;;;;;;3.67;3.38;;;16.20;99.90;;;;;;5054659;28;20251;-74
2023/09/04 03:06:18;;;;;;;3.78;3.30;;;16.20;99.90;;;;;;5055385;28;20193;-75
2023/09/04 03:08:47;;;;;;;3.78;3.03;;;16.20;99.90;;;;;;5055294;28;20340;-72
2023/09/04 03:11:13;;;;;;;4.13;2.95;;;16.20;99.90;;;;;;5055285;28;20170;-75
2023/09/04 03:13:42;;;;;;;4.30;3.63;;;16.20;99.90;;;;;;5054721;28;20193;-74
2023/09/04 03:16:13;;;;;;;4.20;3.50;;;16.20;99.90;;;;;;5055251;28;20188;-75
2023/09/04 03:18:44;;;;;;;3.97;3.22;;;16.20;99.90;;;;;;5055027;28;20177;-75
2023/09/04 03:21:10;;;;;;;4.00;3.60;;;16.20;99.90;;;;;;5055151;28;20169;-74
2023/09/04 03:23:39;;;;;;;3.88;3.50;;;16.20;99.90;;;;;;5055135;28;20204;-74
2023/09/04 03:26:07;;;;;;;3.72;3.33;;;16.10;99.90;;;;;;5055220;28;20180;-74
2023/09/04 03:28:35;;;;;;;4.32;3.47;;;16.10;99.90;;;;;;5054979;28;20231;-75
2023/09/04 03:31:13;;;;;;;4.18;3.60;;;16.10;99.90;;;;;;5054841;28;20266;-75
2023/09/04 03:33:42;;;;;;;4.88;4.03;;;16.10;99.90;;;;;;5054792;28;20169;-76
2023/09/04 03:36:10;;;;;;;4.15;3.75;;;16.10;99.90;;;;;;5038309;28;20208;-74
2023/09/04 03:38:47;;;;;;;4.22;3.50;;;16.10;99.90;;;;;;5038549;28;20219;-75
2023/09/04 03:41:15;;;;;;;5.00;4.22;;;16.10;99.90;;;;;;5037972;28;20205;-75
2023/09/04 03:43:41;;;;;;;6.20;5.60;;;16.10;99.90;;;;;;5038169;28;20201;-75
2023/09/04 03:46:20;;;;;;;5.50;4.85;;;16.10;99.90;;;;;;5038159;28;20176;-75
2023/09/04 03:48:48;;;;;;;4.55;4.15;;;16.00;99.90;;;;;;5038044;28;20256;-73
2023/09/04 03:51:19;;;;;;;4.85;3.92;;;16.10;99.90;;;;;;5038376;28;20212;-74
2023/09/04 03:53:46;;;;;;;5.43;3.78;;;16.10;99.90;;;;;;5038873;28;20181;-74
2023/09/04 03:56:14;;;;;;;4.20;3.53;;;16.10;99.90;;;;;;5058322;28;20204;-74
2023/09/04 03:58:48;;;;;;;4.30;3.85;;;16.00;99.90;;;;;;5057865;28;20176;-74
2023/09/04 04:01:16;;;;;;;6.25;4.93;;;16.00;99.90;;;;;;5058009;28;20255;-76
2023/09/04 04:03:42;;;;;;;5.30;4.80;;;16.00;99.90;;;;;;5057602;28;20208;-75
2023/09/04 04:06:16;;;;;;;4.45;3.90;;;16.10;99.90;;;;;;5058064;28;20192;-75
2023/09/04 04:08:45;;;;;;;5.35;4.40;;;16.10;99.90;;;;;;5057863;28;20172;-73
2023/09/04 04:11:13;;;;;;;3.85;3.45;;;16.00;99.90;;;;;;5057784;28;20189;-73
2023/09/04 04:13:48;;;;;;;4.15;3.72;;;16.00;99.90;;;;;;5075326;28;20179;-74
2023/09/04 04:16:16;;;;;;;4.53;3.13;;;16.00;99.90;;;;;;5060959;28;20409;-75
2023/09/04 04:18:42;;;;;;;3.78;3.33;;;16.00;99.90;;;;;;5061397;28;20173;-76
2023/09/04 04:21:08;;;;;;;4.47;3.45;;;16.00;99.90;;;;;;5061329;28;20208;-75
2023/09/04 04:23:39;;;;;;;6.00;3.50;;;16.00;99.90;;;;;;5061413;28;20196;-75
2023/09/04 04:26:07;;;;;;;3.42;3.10;;;16.00;99.90;;;;;;5078362;28;20209;-75
2023/09/04 04:28:35;;;;;;;5.05;3.17;;;15.90;99.90;;;;;;5061504;28;20168;-75
2023/09/04 04:31:03;;;;;;;3.47;2.92;;;15.90;99.90;;;;;;5061540;28;20191;-73
2023/09/04 04:33:31;;;;;;;2.92;2.63;;;15.90;99.90;;;;;;5061035;28;20180;-75
2023/09/04 04:36:00;;;;;;;3.97;3.50;;;15.90;99.90;;;;;;5041053;28;20173;-76
2023/09/04 04:38:26;;;;;;;4.00;3.28;;;15.90;99.90;;;;;;5042834;28;20204;-76
2023/09/04 04:40:51;;;;;;;5.03;4.28;;;15.90;99.90;;;;;;5041133;28;20178;-76
2023/09/04 04:43:19;;;;;;;4.68;4.20;;;15.90;99.90;;;;;;5041072;28;20217;-76
2023/09/04 04:45:45;;;;;;;3.60;3.30;;;15.80;99.90;;;;;;5040770;28;20238;-74
2023/09/04 04:48:13;;;;;;;5.55;3.78;;;15.80;99.90;;;;;;5040870;28;20197;-76
2023/09/04 04:50:39;;;;;;;9.77;6.32;;;15.80;99.90;;;;;;5040902;28;20265;-75
2023/09/04 04:53:07;;;;;;;5.68;4.95;;;15.80;99.90;;;;;;5040915;28;20290;-75
2023/09/04 04:55:38;;;;;;;4.60;4.20;;;15.80;99.90;;;;;;5041050;28;20170;-75
2023/09/04 04:58:03;;;;;;;4.30;3.58;;;15.70;99.90;;;;;;5041466;28;20201;-77
2023/09/04 05:00:29;;;;;;;4.82;4.10;;;15.80;99.90;;;;;;5042501;28;20193;-75
2023/09/04 05:02:57;;;;;;;4.53;3.63;;;15.70;99.90;;;;;;5040348;28;20235;-76
2023/09/04 05:05:23;;;;;;;4.47;3.95;;;15.70;99.90;;;;;;5041121;28;20175;-76
2023/09/04 05:07:57;;;;;;;4.90;3.53;;;15.70;99.90;;;;;;5040366;28;20264;-76
2023/09/04 05:10:22;;;;;;;4.85;3.92;;;15.70;99.90;;;;;;5040518;28;20161;-73
2023/09/04 05:12:48;;;;;;;4.00;3.60;;;15.70;99.90;;;;;;5040261;28;20280;-74
2023/09/04 05:15:14;;;;;;;4.65;4.13;;;15.60;99.90;;;;;;5040583;28;20231;-75
2023/09/04 05:17:42;;;;;;;4.68;3.92;;;15.60;99.90;;;;;;5040608;28;20207;-75
2023/09/04 05:20:16;;;;;;;4.65;3.88;;;15.60;99.90;;;;;;5063254;28;20172;-75
2023/09/04 05:22:42;;;;;;;4.45;3.60;;;15.70;99.90;;;;;;5060422;28;20206;-75
2023/09/04 05:25:09;;;;;;;4.18;3.78;;;15.60;99.90;;;;;;5059926;28;20181;-75
2023/09/04 05:27:34;;;;;;;4.07;3.60;;;15.70;99.90;;;;;;5046816;28;20187;-76
2023/09/04 05:30:00;;;;;;;5.70;3.80;;;15.70;99.90;;;;;;5039813;28;20279;-76
2023/09/04 05:32:26;;;;;;;4.22;3.83;;;15.70;99.90;;;;;;5040094;28;20207;-75
2023/09/04 05:34:55;;;;;;;3.90;3.50;;;15.70;99.90;;;;;;5040105;28;20197;-77
2023/09/04 05:37:21;;;;;;;4.70;4.00;;;15.80;99.90;;;;;;5056801;28;20270;-75
2023/09/04 05:39:49;;;;;;;4.70;3.78;;;15.70;99.90;;;;;;5039822;28;20280;-75
2023/09/04 05:42:15;;;;;;;4.47;4.07;;;15.80;99.90;;;;;;5039697;28;20220;-73
2023/09/04 05:44:40;;;;;;;5.75;4.07;;;15.80;99.90;;;;;;5057228;28;20276;-75
2023/09/04 05:47:09;;;;;;;5.28;4.35;;;15.90;99.90;;;;;;5047069;28;20212;-76
2023/09/04 05:49:35;;;;;;;4.10;3.80;;;15.90;99.90;;;;;;5059386;28;20189;-75
2023/09/04 05:52:00;;;;;;;4.22;3.83;;;15.90;99.90;;;;;;5059121;28;20184;-75
2023/09/04 05:54:26;;;;;;;4.85;4.35;;;15.90;99.90;;;;;;5059988;28;20180;-74
2023/09/04 05:56:54;;;;;;;5.28;4.50;;;16.00;99.90;;;;;;5060301;28;20179;-75
2023/09/04 05:59:28;;;;;;;4.28;3.88;;;16.00;99.90;;;;;;5058993;28;20237;-75
2023/09/04 06:01:54;;;;;;;6.53;4.00;;;16.10;99.90;;;;;;5059313;28;20196;-75
2023/09/04 06:04:20;;;;;;;4.65;4.03;;;16.20;99.90;;;;;;5059456;28;20183;-75
2023/09/04 06:06:45;;;;;;;4.03;3.63;;;16.20;99.90;;;;;;5059551;28;20172;-76
2023/09/04 06:09:12;;;;;;;4.63;3.80;;;16.20;99.90;;;;;;5059184;28;20256;-76
2023/09/04 06:11:38;;;;;;;4.22;3.83;;;16.20;99.90;;;;;;5059256;28;20203;-75
2023/09/04 06:14:03;;;;;;;4.22;3.72;;;16.40;99.90;;;;;;5059844;28;20173;-74
2023/09/04 06:16:29;;;;;;;6.15;3.60;;;16.30;99.90;;;;;;5059233;28;20291;-75
2023/09/04 06:19:00;;;;;;;4.20;3.80;;;16.40;99.90;;;;;;5058667;28;20233;-74
2023/09/04 06:21:26;;;;;;;4.95;3.88;;;16.40;99.90;;;;;;5058551;28;20196;-75
2023/09/04 06:23:52;;;;;;;5.13;3.97;;;16.50;99.90;;;;;;5059975;28;20172;-75
2023/09/04 06:26:26;;;;;;;5.05;3.97;;;16.50;99.90;;;;;;5058995;28;20203;-75
2023/09/04 06:28:52;;;;;;;3.95;3.65;;;16.50;99.90;;;;;;5076483;28;20149;-75
2023/09/04 06:31:20;;;;;;;5.07;3.83;;;16.50;99.90;;;;;;5059116;28;20203;-73
2023/09/04 06:33:45;;;;;;;5.70;3.83;;;16.60;99.90;;;;;;5058982;28;20168;-74
2023/09/04 06:36:11;;;;;;;5.15;3.60;;;16.60;99.90;;;;;;5058670;28;20184;-74
2023/09/04 06:38:42;;;;;;;4.90;3.67;;;16.70;99.90;;;;;;5058444;28;20168;-75
2023/09/04 06:41:08;;;;;;;4.35;3.47;;;16.70;99.90;;;;;;5058940;28;20176;-73
2023/09/04 06:43:34;;;;;;;4.97;3.60;;;16.70;99.90;;;;;;5058978;28;20197;-74
2023/09/04 06:46:01;;;;;;;5.53;3.25;;;16.80;99.90;;;;;;5059580;28;20168;-74
2023/09/04 06:48:27;;;;;;;3.80;3.42;;;16.90;99.90;;;;;;5059086;28;20185;-74
2023/09/04 06:51:11;;;;;;;4.50;3.03;;;16.90;99.90;;;;;;5059291;28;20181;-72
2023/09/04 06:53:41;;;;;;;3.38;3.08;;;16.90;99.90;;;;;;5058992;28;20211;-74
2023/09/04 06:56:16;;;;;;;3.90;3.33;;;17.00;99.90;;;;;;5060305;28;20180;-73
2023/09/04 06:58:41;;;;;;;4.78;3.20;;;17.00;99.90;;;;;;5060073;28;20173;-74
2023/09/04 07:01:07;;;;;;;4.10;3.42;;;17.00;99.90;;;;;;5073350;28;20222;-74
2023/09/04 07:03:35;;;;;;;4.00;3.60;;;17.10;99.90;;;;;;5086059;28;20256;-73
2023/09/04 07:06:00;;;;;;;4.03;3.30;;;17.20;99.90;;;;;;5089980;28;20190;-72
2023/09/04 07:08:26;;;;;;;4.40;3.72;;;17.20;99.90;;;;;;5083780;28;20259;-68
2023/09/04 07:10:54;;;;;;;3.80;3.10;;;17.30;99.90;;;;;;5077540;28;20161;-66
2023/09/04 07:13:23;;;;;;;4.30;3.00;;;17.30;99.90;;;;;;5077971;28;20185;-66
2023/09/04 07:15:49;;;;;;;4.50;3.00;;;17.40;99.90;;;;;;5076792;28;20168;-65
2023/09/04 07:18:14;;;;;;;3.50;3.20;;;17.40;99.90;;;;;;5072984;28;20239;-71
2023/09/04 07:20:42;;;;;;;4.10;3.40;;;17.50;99.90;;;;;;5063039;28;20172;-73
2023/09/04 07:23:10;;;;;;;3.88;3.10;;;17.50;99.90;;;;;;5057957;28;20241;-74
2023/09/04 07:25:38;;;;;;;3.55;3.20;;;17.60;99.90;;;;;;5058178;28;20179;-74
2023/09/04 07:28:04;;;;;;;3.50;3.20;;;17.70;99.90;;;;;;5057838;28;20207;-74
2023/09/04 07:30:29;;;;;;;4.97;3.25;;;17.80;99.90;;;;;;5058127;28;20230;-74
2023/09/04 07:32:55;;;;;;;5.40;3.22;;;17.80;99.90;;;;;;5058149;28;20184;-74
2023/09/04 07:35:26;;;;;;;3.60;3.20;;;17.90;99.90;;;;;;5058311;28;20180;-74
2023/09/04 07:37:54;;;;;;;3.38;2.75;;;18.00;99.90;;;;;;5058015;28;20177;-74
2023/09/04 07:40:19;;;;;;;2.50;2.30;;;18.10;99.90;;;;;;5057845;28;20212;-73
2023/09/04 07:42:46;;;;;;;4.55;3.05;;;18.10;99.90;;;;;;5058242;28;20231;-74
2023/09/04 07:45:11;;;;;;;3.40;2.90;;;18.20;99.90;;;;;;5057563;28;20192;-74
2023/09/04 07:47:43;;;;;;;3.00;2.60;;;18.30;99.90;;;;;;5058052;28;20213;-74
2023/09/04 07:50:13;;;;;;;4.72;2.85;;;18.30;99.90;;;;;;5060266;28;20197;-73
2023/09/04 07:52:39;;;;;;;2.78;2.47;;;18.40;99.90;;;;;;5061402;28;20279;-74
2023/09/04 07:55:08;;;;;;;3.20;2.90;;;18.50;99.90;;;;;;5062016;28;20219;-74
2023/09/04 07:57:34;;;;;;;3.22;2.92;;;18.60;99.90;;;;;;5062071;28;20204;-73
2023/09/04 08:00:00;;;;;;;3.65;2.88;;;18.60;99.90;;;;;;5061503;28;20371;-73
2023/09/04 08:02:27;;;;;;;3.78;2.72;;;18.70;99.90;;;;;;5061427;28;20286;-74
2023/09/04 08:04:57;;;;;;;3.67;2.85;;;18.80;99.90;;;;;;5061367;28;20192;-73
2023/09/04 08:07:23;;;;;;;4.13;3.25;;;18.90;99.90;;;;;;5061315;28;20169;-72
2023/09/04 08:09:49;;;;;;;2.90;2.60;;;19.00;99.90;;;;;;5061290;28;20197;-74
2023/09/04 08:12:19;;;;;;;3.47;2.60;;;19.10;99.90;;;;;;5061861;28;20192;-74
2023/09/04 08:14:47;;;;;;;3.67;2.50;;;19.10;99.90;;;;;;5062165;28;20176;-72
2023/09/04 08:17:25;;;;;;;5.50;2.97;;;19.20;99.90;;;;;;5061547;28;20172;-72
2023/09/04 08:19:53;;;;;;;3.38;2.58;;;19.30;99.90;;;;;;5061089;28;20184;-72
2023/09/04 08:22:28;;;;;;;2.60;2.38;;;19.40;99.90;;;;;;5061012;28;20201;-73
2023/09/04 08:24:56;;;;;;;3.47;2.92;;;19.50;99.90;;;;;;5061208;28;20186;-71
2023/09/04 08:27:22;;;;;;;3.90;2.70;;;19.60;99.90;;;;;;5061168;28;20180;-71
2023/09/04 08:29:50;;;;;;;3.30;2.55;;;19.70;99.90;;;;;;5061047;28;20185;-72
2023/09/04 08:32:15;;;;;;;2.90;2.60;;;19.80;99.90;;;;;;5060793;28;20172;-71
2023/09/04 08:34:41;;;;;;;2.60;2.40;;;19.90;99.90;;;;;;5060941;28;20175;-72
2023/09/04 08:37:09;;;;;;;3.08;2.50;;;20.00;99.90;;;;;;5060781;28;20208;-72
2023/09/04 08:39:37;;;;;;;2.70;2.50;;;20.00;99.90;;;;;;5061207;28;20235;-71
2023/09/04 08:42:07;;;;;;;2.67;2.47;;;20.10;99.90;;;;;;5060183;28;20208;-72
2023/09/04 08:44:35;;;;;;;4.47;2.13;;;20.20;99.90;;;;;;5060851;28;20157;-73
2023/09/04 08:47:06;;;;;;;2.40;2.10;;;20.30;99.90;;;;;;5060731;28;20283;-74
2023/09/04 08:49:31;;;;;;;3.40;2.50;;;20.40;99.90;;;;;;5060889;28;20298;-73
2023/09/04 08:52:15;;;;;;;3.25;2.65;;;20.50;99.90;;;;;;5060459;28;20214;-72
2023/09/04 08:54:43;;;;;;;2.47;2.28;;;20.60;99.90;;;;;;5060592;28;20192;-73
2023/09/04 08:57:18;;;;;;;3.15;2.25;;;20.70;99.90;;;;;;5060567;28;20197;-73
2023/09/04 08:59:44;;;;;;;2.85;2.47;;;20.80;99.90;;;;;;5060701;28;20165;-74
2023/09/04 09:02:16;;;;;;;2.90;2.60;;;20.90;99.90;;;;;;5060266;28;20209;-73
2023/09/04 09:04:44;;;;;;;3.15;2.60;;;21.00;99.90;;;;;;5060329;28;20168;-73
2023/09/04 09:07:14;;;;;;;2.50;2.30;;;21.10;99.90;;;;;;5060399;28;20238;-72
2023/09/04 09:09:46;;;;;;;2.67;2.47;;;21.20;99.90;;;;;;5060357;28;20172;-73
2023/09/04 09:12:15;;;;;;;3.35;2.78;;;21.20;99.90;;;;;;5060860;28;20197;-73
2023/09/04 09:14:45;;;;;;;3.28;2.30;;;21.30;99.90;;;;;;5060410;28;20176;-73
2023/09/04 09:17:14;;;;;;;2.67;2.42;;;21.50;99.90;;;;;;5060216;28;20208;-73
2023/09/04 09:19:42;;;;;;;3.20;2.28;;;21.60;99.90;;;;;;5052559;28;20173;-73
2023/09/04 09:22:13;;;;;;;2.17;1.98;;;21.60;99.90;;;;;;5056603;28;20264;-73
2023/09/04 09:25:01;;;;;;;3.20;2.25;;;21.80;99.90;;;;;;5057093;28;20238;-74
2023/09/04 09:27:30;;;;;;;2.50;2.30;;;21.90;99.90;;;;;;5056896;28;20162;-73
2023/09/04 09:29:59;;;;;;;2.63;2.20;;;22.00;99.90;;;;;;5056719;28;20180;-73
2023/09/04 09:32:35;;;;;;;3.60;2.53;;;22.00;99.90;;;;;;5056497;28;20212;-73
2023/09/04 09:35:03;;;;;;;2.42;2.22;;;22.20;99.90;;;;;;5056199;28;20169;-73
2023/09/04 09:37:34;;;;;;;2.42;2.08;;;22.30;99.90;;;;;;5057021;28;20169;-72
2023/09/04 09:40:00;;;;;;;2.88;2.20;;;22.40;99.90;;;;;;5056855;28;20181;-73
2023/09/04 09:42:26;;;;;;;2.17;1.98;;;22.50;99.90;;;;;;5056492;28;20203;-73
2023/09/04 09:44:52;;;;;;;2.40;2.00;;;22.60;99.90;;;;;;5056474;28;20220;-73
2023/09/04 09:47:18;;;;;;;2.70;2.10;;;22.70;99.90;;;;;;5056575;28;20165;-73
2023/09/04 09:49:45;;;;;;;2.10;1.90;;;22.80;99.90;;;;;;5056273;28;20193;-73
2023/09/04 09:52:13;;;;;;;2.33;2.08;;;22.90;99.90;;;;;;5056347;28;20594;-72
2023/09/04 09:54:44;;;;;;;2.95;2.10;;;23.00;99.90;;;;;;5055848;28;20204;-73
2023/09/04 09:57:12;;;;;;;2.10;1.95;;;23.20;99.90;;;;;;5056250;28;20169;-73
2023/09/04 09:59:43;;;;;;;2.30;2.10;;;23.50;99.90;;;;;;5055896;28;20298;-72
2023/09/04 10:02:09;;;;;;;2.88;1.88;;;24.00;99.90;;;;;;5055783;28;20216;-73
2023/09/04 10:04:51;;;;;;;2.20;2.00;;;24.60;99.90;;;;;;5056048;28;20193;-74
2023/09/04 10:07:25;;;;;;;3.97;1.73;;;25.20;99.90;;;;;;5057184;28;20181;-72
2023/09/04 10:10:37;;;;;;;3.65;2.00;;;25.80;99.90;;;;;;5056241;28;20204;-71
2023/09/04 10:13:30;;;;;;;2.28;1.98;;;26.50;99.90;;;;;;5068062;28;20195;-74
2023/09/04 10:16:01;;;;;;;2.10;1.90;;;27.20;99.90;;;;;;5058104;28;20205;-70
2023/09/04 10:18:31;;;;;;;1.88;1.77;;;27.60;99.90;;;;;;5059641;28;20176;-72
2023/09/04 10:21:10;;;;;;;1.95;1.80;;;28.00;99.90;;;;;;5062713;28;20200;-75
2023/09/04 10:23:52;;;;;;;2.33;1.85;;;28.30;99.90;;;;;;5060641;28;20276;-74
2023/09/04 10:26:35;;;;;;;1.98;1.77;;;28.60;99.90;;;;;;5059569;28;20254;-74
2023/09/04 10:29:10;;;;;;;3.03;1.80;;;28.90;99.90;;;;;;5059719;28;20173;-73
2023/09/04 10:31:57;;;;;;;2.10;1.80;;;29.20;99.90;;;;;;5059162;28;20219;-73
2023/09/04 10:34:24;;;;;;;1.60;1.50;;;29.40;99.90;;;;;;5058927;28;20175;-73
2023/09/04 10:36:53;;;;;;;2.60;1.88;;;29.60;99.90;;;;;;5059710;28;20227;-73
2023/09/04 10:39:21;;;;;;;2.00;1.80;;;29.70;99.90;;;;;;5059856;28;20195;-76
2023/09/04 10:41:50;;;;;;;1.60;1.45;;;29.80;99.90;;;;;;5058799;28;20255;-72
2023/09/04 10:44:44;;;;;;;1.80;1.70;;;29.90;99.90;;;;;;5059240;28;20190;-74
2023/09/04 10:47:10;;;;;;;2.85;1.85;;;30.00;99.90;;;;;;5059072;28;20207;-74
2023/09/04 10:49:38;;;;;;;1.45;1.30;;;30.10;99.90;;;;;;5058938;28;20184;-72
2023/09/04 10:52:05;;;;;;;2.72;1.38;;;30.10;99.90;;;;;;5076313;28;20180;-74
2023/09/04 10:54:30;;;;;;;2.03;1.70;;;30.10;99.90;;;;;;5058590;28;20171;-74
2023/09/04 10:57:10;;;;;;;1.83;1.70;;;30.10;99.90;;;;;;5058519;28;20199;-74
2023/09/04 10:59:58;;;;;;;1.70;1.60;;;30.10;99.90;;;;;;5059435;28;20183;-71
2023/09/04 11:02:36;;;;;;;1.50;1.40;;;30.10;99.90;;;;;;5059511;28;20208;-74
2023/09/04 11:05:14;;;;;;;2.50;1.30;;;30.10;99.90;;;;;;5059265;28;20239;-72
2023/09/04 11:07:39;;;;;;;1.92;1.30;;;30.10;99.90;;;;;;5059867;28;20274;-74
2023/09/04 11:10:27;;;;;;;2.40;1.65;;;30.10;99.90;;;;;;5059999;28;20195;-73
2023/09/04 11:12:53;;;;;;;1.42;1.33;;;30.10;99.90;;;;;;5058632;28;20196;-74
2023/09/04 11:15:22;;;;;;;1.48;1.38;;;30.10;99.90;;;;;;5058591;28;20175;-73
2023/09/04 11:17:51;;;;;;;2.30;1.60;;;30.20;99.90;;;;;;5059112;28;20203;-75
2023/09/04 11:20:26;;;;;;;2.03;1.38;;;30.20;99.90;;;;;;5058660;28;20229;-75
2023/09/04 11:22:54;;;;;;;1.38;1.27;;;30.20;99.90;;;;;;5059077;28;20302;-71
2023/09/04 11:25:24;;;;;;;2.20;1.58;;;30.20;99.90;;;;;;5064003;28;20175;-73
2023/09/04 11:27:55;;;;;;;1.58;1.40;;;30.20;99.90;;;;;;5064421;28;20196;-73
2023/09/04 11:30:21;;;;;;;1.75;1.40;;;30.20;99.90;;;;;;5063148;28;20164;-73
2023/09/04 11:32:46;;;;;;;1.85;1.50;;;30.20;99.90;;;;;;5062785;28;20196;-74
2023/09/04 11:35:13;;;;;;;2.08;1.42;;;30.20;99.90;;;;;;5062408;28;20182;-75
2023/09/04 11:37:39;;;;;;;3.33;1.50;;;30.20;99.90;;;;;;5062959;28;20176;-73
2023/09/04 11:40:08;;;;;;;2.25;1.70;;;30.30;99.90;;;;;;5062574;28;20173;-73
2023/09/04 11:42:34;;;;;;;1.60;1.33;;;30.30;99.90;;;;;;5063287;28;20210;-72
2023/09/04 11:45:04;;;;;;;1.70;1.45;;;30.30;99.90;;;;;;5061971;28;20168;-75
2023/09/04 11:47:30;;;;;;;1.50;1.27;;;30.30;99.90;;;;;;5045674;28;20200;-73
2023/09/04 11:49:56;;;;;;;1.30;1.20;;;30.30;99.90;;;;;;5063588;28;20172;-76
2023/09/04 11:52:28;;;;;;;1.98;1.45;;;30.30;99.90;;;;;;5061483;28;20221;-76
2023/09/04 11:54:54;;;;;;;3.70;1.60;;;30.40;99.90;;;;;;5061449;28;20207;-72
2023/09/04 11:57:23;;;;;;;1.63;1.42;;;30.40;99.90;;;;;;5062475;28;20204;-73
2023/09/04 11:59:49;;;;;;;1.52;1.40;;;30.40;99.90;;;;;;5061679;28;20200;-73
2023/09/04 12:02:21;;;;;;;1.80;1.38;;;30.40;99.90;;;;;;5061348;28;20200;-73
2023/09/04 12:04:49;;;;;;;4.45;1.50;;;30.50;99.90;;;;;;5079237;28;20541;-73
2023/09/04 12:07:18;;;;;;;2.08;1.70;;;30.50;99.90;;;;;;5062820;28;20164;-75
2023/09/04 12:09:44;;;;;;;1.50;1.40;;;30.50;99.90;;;;;;5062014;28;20204;-75
2023/09/04 12:12:10;;;;;;;1.30;1.20;;;30.50;99.90;;;;;;5061951;28;20278;-74
2023/09/04 12:14:44;;;;;;;1.60;1.50;;;30.60;99.90;;;;;;5061553;28;20191;-74
2023/09/04 12:17:13;;;;;;;1.92;1.23;;;30.60;99.90;;;;;;5062543;28;20250;-73
2023/09/04 12:20:01;;;;;;;1.58;1.48;;;30.70;99.90;;;;;;5061440;28;20196;-76
2023/09/04 12:22:27;;;;;;;2.17;1.58;;;30.80;99.90;;;;;;5062433;28;20290;-74
2023/09/04 12:25:11;;;;;;;3.90;1.60;;;30.80;99.90;;;;;;5062642;28;20228;-72
2023/09/04 12:27:40;;;;;;;1.40;1.30;;;30.90;99.90;;;;;;5061170;28;20194;-72
2023/09/04 12:30:09;;;;;;;1.50;1.40;;;30.90;99.90;;;;;;5062255;28;20252;-74
2023/09/04 12:32:35;;;;;;;2.08;1.35;;;31.00;99.90;;;;;;5062026;28;20165;-72
2023/09/04 12:35:06;;;;;;;1.50;1.38;;;31.10;99.90;;;;;;5061471;28;20926;-73
2023/09/04 12:37:33;;;;;;;1.20;1.10;;;31.10;99.90;;;;;;5061739;28;20168;-74
2023/09/04 12:39:59;;;;;;;1.45;1.23;;;31.20;99.90;;;;;;5064679;28;20172;-73
2023/09/04 12:42:31;;;;;;;1.42;1.30;;;31.30;99.90;;;;;;5063763;28;20202;-73
2023/09/04 12:44:57;;;;;;;1.60;1.50;;;31.30;99.90;;;;;;5061400;28;20174;-73
2023/09/04 12:47:22;;;;;;;1.67;1.20;;;31.30;99.90;;;;;;5061266;28;20184;-73
2023/09/04 12:49:55;;;;;;;2.45;1.30;;;31.40;99.90;;;;;;5060545;28;20168;-73
2023/09/04 12:52:23;;;;;;;2.40;1.33;;;31.40;99.10;;;;;;5060470;28;20409;-75
2023/09/04 12:54:49;;;;;;;1.50;1.30;;;31.50;99.10;;;;;;5061259;28;20215;-73
2023/09/04 12:57:16;;;;;;;1.30;1.20;;;31.60;99.90;;;;;;5060739;28;20196;-74
2023/09/04 12:59:42;;;;;;;1.58;1.17;;;31.60;99.80;;;;;;5060533;28;20188;-75